Time;durP1;ratioP1;P1;durP2;ratioP2;P2;SDS_P1;SDS_P2;PMS_P1;PMS_P2;Temp;Humidity;BMP_temperature;BMP_pressure;BME280_temperature;BME280_humidity;BME280_pressure;Samples;Min_cycle;Max_cycle;Signal;HPM_P1;HPM_P2
2022/03/28 00:01:55;;;;;;;18.80;11.88;;;7.20;45.80;;;;;;5039569;28;20249;-62
2022/03/28 00:04:22;;;;;;;24.05;11.77;;;7.10;45.30;;;;;;5034526;28;20195;-62
2022/03/28 00:06:49;;;;;;;15.15;10.13;;;7.00;45.00;;;;;;5046639;28;20664;-62
2022/03/28 00:09:16;;;;;;;18.13;11.40;;;6.90;45.10;;;;;;5054117;28;20631;-62
2022/03/28 00:11:43;;;;;;;14.18;10.20;;;6.90;45.30;;;;;;5042207;28;20245;-61
2022/03/28 00:14:12;;;;;;;15.60;10.70;;;6.80;45.30;;;;;;5033943;28;20252;-62
2022/03/28 00:16:39;;;;;;;15.98;11.57;;;6.70;46.00;;;;;;5043982;28;20256;-62
2022/03/28 00:19:06;;;;;;;15.55;11.35;;;6.70;46.00;;;;;;5054028;28;20229;-62
2022/03/28 00:21:33;;;;;;;13.52;10.38;;;6.70;46.30;;;;;;5044972;28;20187;-62
2022/03/28 00:24:00;;;;;;;21.10;12.40;;;6.60;46.10;;;;;;5034156;28;20187;-62
2022/03/28 00:26:27;;;;;;;15.93;11.32;;;6.60;45.70;;;;;;5040918;28;20186;-62
2022/03/28 00:28:54;;;;;;;17.38;11.35;;;6.50;45.80;;;;;;5048285;28;20210;-62
2022/03/28 00:31:22;;;;;;;19.05;11.60;;;6.50;46.10;;;;;;5034035;28;20273;-62
2022/03/28 00:33:50;;;;;;;15.52;10.75;;;6.40;46.10;;;;;;5037755;28;20265;-62
2022/03/28 00:36:17;;;;;;;16.23;11.57;;;6.30;46.40;;;;;;5053654;28;20201;-62
2022/03/28 00:38:44;;;;;;;17.48;11.25;;;6.30;46.60;;;;;;5050323;28;20187;-61
2022/03/28 00:41:12;;;;;;;20.38;11.55;;;6.20;47.10;;;;;;5033702;28;20723;-61
2022/03/28 00:43:45;;;;;;;18.77;11.98;;;6.20;47.20;;;;;;5035012;28;20244;-62
2022/03/28 00:46:13;;;;;;;17.33;10.95;;;6.10;47.30;;;;;;5053727;28;20197;-62
2022/03/28 00:48:42;;;;;;;21.33;11.85;;;6.10;47.20;;;;;;5051438;28;20287;-62
2022/03/28 00:51:11;;;;;;;19.75;11.27;;;5.90;47.80;;;;;;5033366;28;20201;-62
2022/03/28 00:53:40;;;;;;;15.18;9.90;;;5.80;48.50;;;;;;5033794;28;20230;-62
2022/03/28 00:56:07;;;;;;;14.57;11.20;;;5.80;48.90;;;;;;5053447;28;20606;-62
2022/03/28 00:58:35;;;;;;;16.05;9.95;;;5.80;49.00;;;;;;5032919;28;20232;-62
2022/03/28 01:01:02;;;;;;;16.98;10.98;;;5.90;48.70;;;;;;5033428;28;20193;-62
2022/03/28 01:03:29;;;;;;;16.55;11.23;;;5.80;47.70;;;;;;5050682;28;20241;-62
2022/03/28 01:05:57;;;;;;;20.15;12.75;;;5.80;47.90;;;;;;5053457;28;20545;-62
2022/03/28 01:08:26;;;;;;;18.38;10.10;;;5.80;49.40;;;;;;5035873;28;20206;-62
2022/03/28 01:10:57;;;;;;;14.02;9.57;;;5.70;49.60;;;;;;5033020;28;20195;-62
2022/03/28 01:13:25;;;;;;;21.08;10.00;;;5.60;50.10;;;;;;5048732;28;20194;-62
2022/03/28 01:15:52;;;;;;;16.08;10.65;;;5.70;51.10;;;;;;5052255;28;20195;-62
2022/03/28 01:18:18;;;;;;;15.80;11.07;;;5.60;51.00;;;;;;5050903;28;20246;-62
2022/03/28 01:20:45;;;;;;;13.90;10.07;;;5.60;50.60;;;;;;5052782;28;20190;-62
2022/03/28 01:23:14;;;;;;;14.38;11.18;;;5.70;51.10;;;;;;5036091;28;20187;-61
2022/03/28 01:25:44;;;;;;;16.67;10.50;;;5.70;52.00;;;;;;5043514;28;20190;-62
2022/03/28 01:28:11;;;;;;;18.35;11.57;;;5.80;51.90;;;;;;5052684;28;20190;-62
2022/03/28 01:30:38;;;;;;;18.27;11.30;;;5.80;51.70;;;;;;5050792;28;20241;-62
2022/03/28 01:33:06;;;;;;;13.65;9.55;;;5.80;51.00;;;;;;5052147;28;20190;-62
2022/03/28 01:35:35;;;;;;;17.20;10.80;;;5.80;50.20;;;;;;5042802;28;20191;-62
2022/03/28 01:38:03;;;;;;;15.75;10.13;;;5.70;50.00;;;;;;5032536;28;20676;-62
2022/03/28 01:40:33;;;;;;;16.63;9.73;;;5.70;50.10;;;;;;5040552;28;20194;-62
2022/03/28 01:43:01;;;;;;;14.82;9.43;;;5.60;49.90;;;;;;5052507;28;20649;-63
2022/03/28 01:45:28;;;;;;;21.02;11.63;;;5.60;49.60;;;;;;5043540;28;20191;-62
2022/03/28 01:47:59;;;;;;;20.13;9.68;;;5.60;49.70;;;;;;5032546;28;20277;-62
2022/03/28 01:50:26;;;;;;;14.80;9.38;;;5.60;49.50;;;;;;5039995;28;20210;-62
2022/03/28 01:52:54;;;;;;;16.00;10.00;;;5.50;49.50;;;;;;5052747;28;20585;-63
2022/03/28 01:55:21;;;;;;;17.98;10.10;;;5.50;49.10;;;;;;5045703;28;20194;-62
2022/03/28 01:57:49;;;;;;;17.55;11.10;;;5.40;48.80;;;;;;5033857;28;20717;-62
2022/03/28 02:00:20;;;;;;;19.27;9.98;;;5.40;49.20;;;;;;5052192;28;20260;-62
2022/03/28 02:02:47;;;;;;;17.85;10.75;;;5.30;49.50;;;;;;5050602;28;20190;-62
2022/03/28 02:05:15;;;;;;;13.75;9.73;;;5.20;50.00;;;;;;5032257;28;20237;-62
2022/03/28 02:07:46;;;;;;;14.25;10.18;;;5.20;49.90;;;;;;5032319;28;20191;-63
2022/03/28 02:10:15;;;;;;;16.17;10.30;;;5.20;49.80;;;;;;5012274;28;20285;-62
2022/03/28 02:12:43;;;;;;;14.32;8.90;;;5.20;49.50;;;;;;5012096;28;20215;-62
2022/03/28 02:15:11;;;;;;;15.00;10.75;;;5.10;49.80;;;;;;5032200;28;20244;-61
2022/03/28 02:17:39;;;;;;;15.73;10.13;;;5.10;49.90;;;;;;5032136;28;20223;-61
2022/03/28 02:20:08;;;;;;;18.15;10.10;;;5.00;50.50;;;;;;5032777;28;20591;-62
2022/03/28 02:22:35;;;;;;;17.73;10.98;;;4.90;50.60;;;;;;5032449;28;20191;-62
2022/03/28 02:25:05;;;;;;;15.60;10.05;;;4.90;50.70;;;;;;5049766;28;20699;-62
2022/03/28 02:27:32;;;;;;;17.60;9.93;;;4.80;50.90;;;;;;5051999;28;20269;-62
2022/03/28 02:29:59;;;;;;;16.20;9.73;;;4.80;51.00;;;;;;5034540;28;20265;-64
2022/03/28 02:32:28;;;;;;;15.60;9.02;;;4.70;51.60;;;;;;5031735;28;20274;-63
2022/03/28 02:34:55;;;;;;;12.40;9.70;;;4.70;51.80;;;;;;5046657;28;20260;-64
2022/03/28 02:37:23;;;;;;;16.90;9.68;;;4.70;51.60;;;;;;5052122;28;20248;-62
2022/03/28 02:39:50;;;;;;;18.10;10.63;;;4.70;51.60;;;;;;5037437;28;20219;-62
2022/03/28 02:42:22;;;;;;;17.55;10.30;;;4.60;52.10;;;;;;5031570;28;20869;-62
2022/03/28 02:44:49;;;;;;;13.57;9.73;;;4.60;52.00;;;;;;5045196;28;20615;-62
2022/03/28 02:47:18;;;;;;;15.63;9.93;;;4.60;51.40;;;;;;5042056;28;20199;-62
2022/03/28 02:49:48;;;;;;;12.70;9.45;;;4.50;52.00;;;;;;5031536;28;20264;-62
2022/03/28 02:52:15;;;;;;;17.33;10.15;;;4.40;51.80;;;;;;5039838;28;20186;-62
2022/03/28 02:54:42;;;;;;;14.90;9.88;;;4.40;52.40;;;;;;5051314;28;20248;-62
2022/03/28 02:57:09;;;;;;;15.50;10.18;;;4.40;52.60;;;;;;5044347;28;20270;-62
2022/03/28 02:59:36;;;;;;;13.15;9.70;;;4.40;52.60;;;;;;5031804;28;20689;-62
2022/03/28 03:02:03;;;;;;;19.10;12.07;;;4.40;52.50;;;;;;5036826;28;20197;-62
2022/03/28 03:04:32;;;;;;;15.00;10.25;;;4.40;52.30;;;;;;5051485;28;20198;-62
2022/03/28 03:07:02;;;;;;;21.95;16.05;;;4.30;52.80;;;;;;5046571;28;20241;-62
2022/03/28 03:09:29;;;;;;;18.58;11.88;;;4.30;53.40;;;;;;5031370;28;20309;-61
2022/03/28 03:11:57;;;;;;;19.58;12.40;;;4.30;53.60;;;;;;5034872;28;20179;-62
2022/03/28 03:14:24;;;;;;;16.45;10.55;;;4.40;53.90;;;;;;5049280;28;20198;-63
2022/03/28 03:16:51;;;;;;;15.30;11.10;;;4.30;53.80;;;;;;5030904;28;20195;-61
2022/03/28 03:19:18;;;;;;;14.73;10.00;;;4.40;54.30;;;;;;5031345;28;20191;-62
2022/03/28 03:21:46;;;;;;;16.13;10.13;;;4.40;54.00;;;;;;5053924;28;20534;-62
2022/03/28 03:24:14;;;;;;;16.70;10.20;;;4.40;53.60;;;;;;5054741;28;20667;-62
2022/03/28 03:26:41;;;;;;;15.00;10.65;;;4.40;53.40;;;;;;5035323;28;20564;-62
2022/03/28 03:29:08;;;;;;;17.73;10.07;;;4.40;52.90;;;;;;5035136;28;20211;-62
2022/03/28 03:31:35;;;;;;;14.00;10.18;;;4.30;53.00;;;;;;5046656;28;20202;-62
2022/03/28 03:34:02;;;;;;;14.18;10.10;;;4.30;53.00;;;;;;5034727;28;20222;-61
2022/03/28 03:36:29;;;;;;;14.82;11.00;;;4.30;52.60;;;;;;5034897;28;20192;-62
2022/03/28 03:38:56;;;;;;;18.67;10.60;;;4.30;52.70;;;;;;5035807;28;20812;-62
2022/03/28 03:41:26;;;;;;;17.40;10.82;;;4.30;52.80;;;;;;5034899;28;20191;-62
2022/03/28 03:43:53;;;;;;;14.70;11.27;;;4.20;53.50;;;;;;5049466;28;20186;-62
2022/03/28 03:46:20;;;;;;;18.02;10.48;;;4.20;54.30;;;;;;5054748;28;20202;-61
2022/03/28 03:48:47;;;;;;;21.25;12.05;;;4.10;54.20;;;;;;5040386;28;20198;-62
2022/03/28 03:51:14;;;;;;;17.10;11.45;;;4.10;54.40;;;;;;5044820;28;20245;-61
2022/03/28 03:53:42;;;;;;;15.35;10.35;;;4.10;54.40;;;;;;5054545;28;20198;-62
2022/03/28 03:56:09;;;;;;;15.30;11.57;;;4.10;55.10;;;;;;5044634;28;20180;-61
2022/03/28 03:58:37;;;;;;;15.85;10.88;;;4.10;55.90;;;;;;5034438;28;20561;-62
2022/03/28 04:01:04;;;;;;;12.52;8.57;;;4.00;55.90;;;;;;5042562;28;20183;-62
2022/03/28 04:03:33;;;;;;;13.48;10.05;;;4.00;56.20;;;;;;5054483;28;20286;-63
2022/03/28 04:06:00;;;;;;;14.63;10.13;;;4.00;56.50;;;;;;5047344;28;20187;-62
2022/03/28 04:08:27;;;;;;;15.65;10.13;;;4.10;56.20;;;;;;5034755;28;20202;-62
2022/03/28 04:10:54;;;;;;;12.70;9.43;;;4.10;56.60;;;;;;5040497;28;20214;-62
2022/03/28 04:13:21;;;;;;;17.90;10.07;;;4.10;56.70;;;;;;5054526;28;20194;-61
2022/03/28 04:15:50;;;;;;;13.02;8.50;;;4.20;56.10;;;;;;5049064;28;20638;-62
2022/03/28 04:18:17;;;;;;;15.00;9.63;;;4.20;56.00;;;;;;5034273;28;20265;-61
2022/03/28 04:20:44;;;;;;;12.75;9.30;;;4.20;55.50;;;;;;5037860;28;20189;-61
2022/03/28 04:23:11;;;;;;;15.25;10.27;;;4.00;55.40;;;;;;5050686;28;20191;-61
2022/03/28 04:25:38;;;;;;;12.93;9.07;;;4.00;56.00;;;;;;5034370;28;20195;-62
2022/03/28 04:28:07;;;;;;;12.68;10.00;;;4.00;56.20;;;;;;5035583;28;20337;-62
2022/03/28 04:30:34;;;;;;;12.13;8.52;;;3.90;55.40;;;;;;5054203;28;20309;-62
2022/03/28 04:33:03;;;;;;;15.45;10.07;;;3.90;55.10;;;;;;5051470;28;20191;-63
2022/03/28 04:35:30;;;;;;;14.82;9.77;;;4.00;55.70;;;;;;5034239;28;20608;-63
2022/03/28 04:37:59;;;;;;;16.48;9.90;;;4.00;57.00;;;;;;5034165;28;20191;-62
2022/03/28 04:40:33;;;;;;;24.00;10.50;;;3.90;57.70;;;;;;5053476;28;20190;-63
2022/03/28 04:43:00;;;;;;;19.02;10.15;;;4.00;57.80;;;;;;5053936;28;20193;-62
2022/03/28 04:45:28;;;;;;;21.63;9.68;;;4.10;57.70;;;;;;5034287;28;20187;-63
2022/03/28 04:47:55;;;;;;;12.57;9.90;;;4.10;57.60;;;;;;5033604;28;20237;-63
2022/03/28 04:50:24;;;;;;;23.92;10.63;;;4.20;57.10;;;;;;5051168;28;20746;-62
2022/03/28 04:52:51;;;;;;;17.20;9.77;;;4.20;56.50;;;;;;5053907;28;20225;-62
2022/03/28 04:55:19;;;;;;;16.52;9.15;;;4.10;54.90;;;;;;5036235;28;20199;-62
2022/03/28 04:57:46;;;;;;;16.60;10.35;;;4.10;54.70;;;;;;5034885;28;20187;-63
2022/03/28 05:00:15;;;;;;;15.32;9.93;;;4.00;55.30;;;;;;5048701;28;20183;-62
2022/03/28 05:02:42;;;;;;;12.90;9.75;;;4.00;54.50;;;;;;5053593;28;20213;-62
2022/03/28 05:05:09;;;;;;;15.05;9.70;;;3.80;54.70;;;;;;5040616;28;20180;-62
2022/03/28 05:07:38;;;;;;;17.50;10.98;;;3.70;55.00;;;;;;5033350;28;20187;-62
2022/03/28 05:10:06;;;;;;;13.95;9.48;;;3.70;54.80;;;;;;5033705;28;20219;-62
2022/03/28 05:12:34;;;;;;;15.10;10.05;;;3.70;54.40;;;;;;5044114;28;20209;-62
2022/03/28 05:15:02;;;;;;;13.90;10.15;;;3.70;54.10;;;;;;5053205;28;20194;-62
2022/03/28 05:17:30;;;;;;;18.48;11.27;;;3.60;54.20;;;;;;5042557;28;20211;-62
2022/03/28 05:19:58;;;;;;;20.50;10.38;;;3.70;54.50;;;;;;5033390;28;20281;-62
2022/03/28 05:22:26;;;;;;;16.23;9.50;;;3.70;54.70;;;;;;5047949;28;20269;-62
2022/03/28 05:24:59;;;;;;;15.90;10.85;;;3.70;54.70;;;;;;5031064;28;20252;-62
2022/03/28 05:27:28;;;;;;;17.88;10.05;;;3.70;54.60;;;;;;5031410;28;20195;-62
2022/03/28 05:29:55;;;;;;;11.95;10.30;;;3.70;54.20;;;;;;5031399;28;20569;-62
2022/03/28 05:32:22;;;;;;;16.05;8.77;;;3.70;54.30;;;;;;5031369;28;20194;-62
2022/03/28 05:34:52;;;;;;;15.85;11.00;;;3.80;54.80;;;;;;5031112;28;20214;-63
2022/03/28 05:37:19;;;;;;;17.70;11.38;;;3.80;55.10;;;;;;5027775;28;20183;-62
2022/03/28 05:39:48;;;;;;;26.08;12.75;;;3.80;54.90;;;;;;5031470;28;20203;-62
2022/03/28 05:42:20;;;;;;;21.20;12.75;;;3.80;55.00;;;;;;5031126;28;20227;-62
2022/03/28 05:44:47;;;;;;;20.98;10.88;;;3.80;55.00;;;;;;5026718;28;20660;-62
2022/03/28 05:47:14;;;;;;;13.90;9.98;;;3.80;55.40;;;;;;5031897;28;20730;-62
2022/03/28 05:49:41;;;;;;;20.90;11.38;;;3.80;56.10;;;;;;5031253;28;20203;-62
2022/03/28 05:52:10;;;;;;;17.23;10.13;;;3.80;56.30;;;;;;5030699;28;20229;-64
2022/03/28 05:54:38;;;;;;;22.08;12.95;;;3.80;56.80;;;;;;5031006;28;20716;-63
2022/03/28 05:57:06;;;;;;;23.85;13.02;;;4.00;56.80;;;;;;5025983;28;20198;-63
2022/03/28 05:59:35;;;;;;;18.70;11.77;;;4.10;57.30;;;;;;5025417;28;20274;-65
2022/03/28 06:02:02;;;;;;;17.15;11.30;;;4.20;57.20;;;;;;5026353;28;20198;-63
2022/03/28 06:04:29;;;;;;;19.52;11.18;;;4.40;57.00;;;;;;5030663;28;20194;-62
2022/03/28 06:07:03;;;;;;;16.50;10.05;;;4.50;56.90;;;;;;5031983;28;20642;-63
2022/03/28 06:09:30;;;;;;;15.02;10.07;;;4.60;56.60;;;;;;5032460;28;20256;-62
2022/03/28 06:11:57;;;;;;;21.08;10.30;;;4.70;56.60;;;;;;5031917;28;20219;-62
2022/03/28 06:14:24;;;;;;;16.65;10.30;;;4.80;57.00;;;;;;5031039;28;20237;-62
2022/03/28 06:16:53;;;;;;;15.35;10.52;;;4.80;57.00;;;;;;5030932;28;20281;-63
2022/03/28 06:19:20;;;;;;;13.48;9.55;;;4.90;57.20;;;;;;5031451;28;20879;-62
2022/03/28 06:21:46;;;;;;;13.85;10.23;;;4.90;57.60;;;;;;5033703;28;20286;-62
2022/03/28 06:24:13;;;;;;;14.93;9.82;;;5.00;58.20;;;;;;5030629;28;20689;-62
2022/03/28 06:26:40;;;;;;;15.80;11.32;;;5.10;57.80;;;;;;5030685;28;20344;-63
2022/03/28 06:29:09;;;;;;;16.02;10.38;;;5.30;57.80;;;;;;5033374;28;20274;-62
2022/03/28 06:31:36;;;;;;;15.65;9.73;;;5.40;58.40;;;;;;5033634;28;20215;-62
2022/03/28 06:34:07;;;;;;;21.27;11.23;;;5.70;58.50;;;;;;5030839;28;20672;-63
2022/03/28 06:36:35;;;;;;;18.67;10.77;;;5.90;59.10;;;;;;5032638;28;20548;-62
2022/03/28 06:39:03;;;;;;;25.08;11.55;;;6.10;59.00;;;;;;5030996;28;20191;-62
2022/03/28 06:41:32;;;;;;;19.50;10.75;;;6.20;58.50;;;;;;5033100;28;20646;-62
2022/03/28 06:43:59;;;;;;;15.13;11.23;;;6.40;58.50;;;;;;5032778;28;20664;-64
2022/03/28 06:46:27;;;;;;;16.25;10.60;;;6.60;58.40;;;;;;5029524;28;20182;-62
2022/03/28 06:48:57;;;;;;;14.35;10.48;;;6.90;58.70;;;;;;5030972;28;20229;-62
2022/03/28 06:51:26;;;;;;;13.95;11.10;;;7.20;57.40;;;;;;5030353;28;20211;-63
2022/03/28 06:53:53;;;;;;;23.00;13.40;;;7.40;56.20;;;;;;5033112;28;20642;-62
2022/03/28 06:56:20;;;;;;;20.40;13.07;;;7.70;56.60;;;;;;5035074;28;20735;-62
2022/03/28 06:58:47;;;;;;;21.08;12.73;;;7.90;56.00;;;;;;5034486;28;20301;-63
2022/03/28 07:01:15;;;;;;;21.35;12.57;;;8.30;55.90;;;;;;5034089;28;20548;-62
2022/03/28 07:03:42;;;;;;;18.83;11.65;;;8.70;55.00;;;;;;5033246;28;20210;-62
2022/03/28 07:06:09;;;;;;;19.30;11.90;;;9.20;53.80;;;;;;5034351;28;20932;-62
2022/03/28 07:08:39;;;;;;;18.35;11.60;;;9.70;53.10;;;;;;5033846;28;20199;-63
2022/03/28 07:11:06;;;;;;;15.20;11.52;;;10.20;51.70;;;;;;5037661;28;20206;-62
2022/03/28 07:13:35;;;;;;;20.30;13.73;;;10.80;50.50;;;;;;5030157;28;20617;-63
2022/03/28 07:16:06;;;;;;;16.67;11.85;;;11.50;50.50;;;;;;5033647;28;20183;-63
2022/03/28 07:18:34;;;;;;;18.50;11.30;;;12.40;50.30;;;;;;5034814;28;20298;-63
2022/03/28 07:21:02;;;;;;;17.02;11.35;;;13.50;49.20;;;;;;5032645;28;20195;-65
2022/03/28 07:23:30;;;;;;;15.52;10.23;;;14.80;48.90;;;;;;5033394;28;20203;-63
2022/03/28 07:26:02;;;;;;;17.27;10.38;;;16.30;45.90;;;;;;5035199;28;20221;-63
2022/03/28 07:28:29;;;;;;;16.77;11.32;;;18.40;42.40;;;;;;5033704;28;20198;-63
2022/03/28 07:30:56;;;;;;;19.70;11.63;;;20.60;37.60;;;;;;5027381;28;21092;-64
2022/03/28 07:33:24;;;;;;;13.73;12.17;;;22.40;33.90;;;;;;5033345;28;20550;-63
2022/03/28 07:35:51;;;;;;;12.93;10.70;;;24.00;30.40;;;;;;5032121;28;20492;-64
2022/03/28 07:38:19;;;;;;;13.33;10.63;;;25.40;27.20;;;;;;5032909;28;20442;-70
2022/03/28 07:40:46;;;;;;;11.07;9.87;;;26.60;25.30;;;;;;5033734;28;20453;-63
2022/03/28 07:43:16;;;;;;;11.33;9.50;;;27.80;24.50;;;;;;5034173;28;20442;-63
2022/03/28 07:45:43;;;;;;;11.60;10.30;;;29.10;23.10;;;;;;5031859;28;20437;-65
2022/03/28 07:48:10;;;;;;;13.50;10.93;;;30.20;21.70;;;;;;5033621;28;20445;-64
2022/03/28 07:50:37;;;;;;;17.03;10.97;;;31.30;20.90;;;;;;5030406;28;20575;-65
2022/03/28 07:53:05;;;;;;;11.40;10.20;;;32.30;18.10;;;;;;5035822;28;20442;-66
2022/03/28 07:55:34;;;;;;;17.87;9.00;;;33.10;18.00;;;;;;5033465;28;20800;-65
2022/03/28 07:58:03;;;;;;;11.53;8.90;;;34.00;17.50;;;;;;5033519;28;20529;-64
2022/03/28 08:00:32;;;;;;;11.63;9.37;;;34.80;15.40;;;;;;5033463;28;20445;-64
2022/03/28 08:03:00;;;;;;;9.87;8.60;;;35.60;15.10;;;;;;5033098;28;20934;-65
2022/03/28 08:05:31;;;;;;;9.50;8.50;;;36.30;14.20;;;;;;5033298;28;20440;-64
2022/03/28 08:07:58;;;;;;;11.13;9.57;;;37.00;13.20;;;;;;5033241;28;20953;-64
2022/03/28 08:10:26;;;;;;;10.13;9.13;;;37.70;12.20;;;;;;5031408;28;20444;-64
2022/03/28 08:12:54;;;;;;;9.97;9.03;;;38.10;11.40;;;;;;5032354;28;20446;-64
2022/03/28 08:15:22;;;;;;;10.60;9.23;;;38.70;12.20;;;;;;5032849;28;20445;-64
2022/03/28 08:17:52;;;;;;;10.93;8.93;;;39.30;11.20;;;;;;5034893;28;20480;-64
2022/03/28 08:20:19;;;;;;;9.87;8.97;;;39.70;11.20;;;;;;5032219;28;20445;-64
2022/03/28 08:22:49;;;;;;;12.40;9.03;;;40.20;10.10;;;;;;5033382;28;20446;-64
2022/03/28 08:25:25;;;;;;;11.80;9.20;;;40.70;9.70;;;;;;5034686;28;20500;-64
2022/03/28 08:27:53;;;;;;;11.10;9.80;;;41.10;9.90;;;;;;5029345;28;20503;-62
2022/03/28 08:30:20;;;;;;;10.53;9.57;;;41.40;8.50;;;;;;5031865;28;20781;-61
2022/03/28 08:32:47;;;;;;;10.53;8.20;;;41.60;9.20;;;;;;5032020;28;20446;-63
2022/03/28 08:35:16;;;;;;;10.43;9.37;;;42.00;8.50;;;;;;5032893;28;20437;-62
2022/03/28 08:37:44;;;;;;;9.33;8.40;;;42.60;8.60;;;;;;5032392;28;20446;-62
2022/03/28 08:40:11;;;;;;;10.23;9.17;;;42.90;8.30;;;;;;5028043;28;20947;-62
2022/03/28 08:42:40;;;;;;;10.03;8.53;;;43.30;7.40;;;;;;5037208;28;20486;-66
2022/03/28 08:45:10;;;;;;;9.63;8.57;;;43.40;7.20;;;;;;5034735;28;20441;-62
2022/03/28 08:47:42;;;;;;;9.67;8.70;;;43.70;7.80;;;;;;5030763;28;20449;-62
2022/03/28 08:50:10;;;;;;;9.93;9.00;;;44.30;6.40;;;;;;5034836;28;20437;-63
2022/03/28 08:52:40;;;;;;;10.20;9.30;;;44.40;6.70;;;;;;5037966;28;20434;-62
2022/03/28 08:55:08;;;;;;;9.97;8.87;;;44.90;6.50;;;;;;5032191;28;20446;-63
2022/03/28 08:57:37;;;;;;;13.30;9.30;;;45.50;5.80;;;;;;5035662;28;20914;-62
2022/03/28 09:00:05;;;;;;;10.60;9.10;;;45.90;5.90;;;;;;5032318;28;20492;-62
2022/03/28 09:02:40;;;;;;;13.67;9.53;;;46.20;5.70;;;;;;5032104;28;20501;-63
2022/03/28 09:05:08;;;;;;;11.00;10.00;;;46.40;5.70;;;;;;5035497;28;20449;-62
2022/03/28 09:07:35;;;;;;;10.87;9.77;;;46.70;5.70;;;;;;5032866;28;20446;-62
2022/03/28 09:10:07;;;;;;;10.13;9.13;;;47.00;5.40;;;;;;5036450;28;20448;-63
2022/03/28 09:12:40;;;;;;;12.53;11.43;;;47.30;5.00;;;;;;5035717;28;20453;-63
2022/03/28 09:15:09;;;;;;;9.73;8.77;;;47.40;4.80;;;;;;5033016;28;20984;-62
2022/03/28 09:17:41;;;;;;;12.50;9.70;;;47.80;5.20;;;;;;5033258;28;20474;-62
2022/03/28 09:20:11;;;;;;;16.43;10.20;;;48.20;5.20;;;;;;5032129;28;20440;-62
2022/03/28 09:22:41;;;;;;;10.23;9.33;;;48.60;5.10;;;;;;5032419;28;20863;-62
2022/03/28 09:25:13;;;;;;;10.90;9.87;;;48.90;5.50;;;;;;5034113;28;20442;-62
2022/03/28 09:27:44;;;;;;;12.20;11.00;;;49.20;4.80;;;;;;5033347;28;20441;-62
2022/03/28 09:30:14;;;;;;;12.47;11.17;;;49.70;4.40;;;;;;5030850;28;20453;-62
2022/03/28 09:32:44;;;;;;;11.27;10.10;;;50.30;4.60;;;;;;5031448;28;20469;-64
2022/03/28 09:35:19;;;;;;;10.77;9.70;;;50.60;4.00;;;;;;5031099;28;20445;-63
2022/03/28 09:38:05;;;;;;;10.37;9.27;;;50.80;4.10;;;;;;5030095;28;20460;-63
2022/03/28 09:40:37;;;;;;;11.40;10.40;;;51.20;4.40;;;;;;5033298;28;20507;-63
2022/03/28 09:43:08;;;;;;;13.93;12.43;;;51.60;3.90;;;;;;5033054;28;20480;-64
2022/03/28 09:45:38;;;;;;;11.47;10.37;;;52.20;3.50;;;;;;5032096;28;20446;-63
2022/03/28 09:48:08;;;;;;;11.80;10.80;;;52.20;3.50;;;;;;5031523;28;20948;-63
2022/03/28 09:50:40;;;;;;;13.20;12.07;;;52.50;3.50;;;;;;5029801;28;20827;-64
2022/03/28 09:53:13;;;;;;;12.77;11.47;;;52.90;2.90;;;;;;5029709;28;20519;-63
2022/03/28 09:55:53;;;;;;;14.10;12.60;;;53.20;3.20;;;;;;5030763;28;20857;-63
2022/03/28 09:58:43;;;;;;;13.97;12.77;;;53.50;3.30;;;;;;5031470;28;20912;-66
2022/03/28 10:01:18;;;;;;;12.57;11.47;;;53.80;2.70;;;;;;5029865;28;20481;-63
2022/03/28 10:03:52;;;;;;;13.40;12.10;;;54.00;2.60;;;;;;5029834;28;20445;-65
2022/03/28 10:06:20;;;;;;;13.90;12.50;;;53.80;2.50;;;;;;5028480;28;20500;-63
2022/03/28 10:08:48;;;;;;;11.80;10.70;;;53.30;3.10;;;;;;5030782;28;20529;-63
2022/03/28 10:11:18;;;;;;;14.07;12.70;;;53.70;2.90;;;;;;5030398;28;20486;-63
2022/03/28 10:13:46;;;;;;;13.40;12.20;;;54.00;2.60;;;;;;5027352;28;20445;-63
2022/03/28 10:16:15;;;;;;;14.53;13.10;;;54.30;2.80;;;;;;5029430;28;20449;-63
2022/03/28 10:18:44;;;;;;;14.83;13.50;;;54.60;2.30;;;;;;5029042;28;20469;-65
2022/03/28 10:21:18;;;;;;;15.20;13.70;;;55.00;2.30;;;;;;5032492;28;20453;-63
2022/03/28 10:23:50;;;;;;;13.67;12.37;;;55.30;1.90;;;;;;5029175;28;20796;-63
2022/03/28 10:26:24;;;;;;;14.30;13.10;;;55.30;1.70;;;;;;5028735;28;20452;-64
2022/03/28 10:29:07;;;;;;;14.67;13.33;;;55.20;1.40;;;;;;5030383;28;21504;-63
2022/03/28 10:31:35;;;;;;;14.40;13.13;;;54.70;1.50;;;;;;5030956;28;20519;-63
2022/03/28 10:34:03;;;;;;;14.47;13.23;;;54.30;2.00;;;;;;5034943;28;20442;-63
2022/03/28 10:36:31;;;;;;;16.23;12.70;;;54.20;1.90;;;;;;5037481;28;20442;-64
2022/03/28 10:39:35;;;;;;;13.70;12.40;;;54.00;2.00;;;;;;5042208;28;20848;-66
2022/03/28 10:42:15;;;;;;;14.63;12.60;;;53.60;2.60;;;;;;5039484;28;20984;-63
2022/03/28 10:44:58;;;;;;;14.43;12.60;;;54.10;2.00;;;;;;5035603;28;20456;-64
2022/03/28 10:47:41;;;;;;;13.67;12.37;;;54.50;2.50;;;;;;5032496;28;20856;-64
2022/03/28 10:50:09;;;;;;;13.17;11.90;;;54.90;2.10;;;;;;5041890;28;20436;-63
2022/03/28 10:52:36;;;;;;;13.33;12.23;;;54.90;1.90;;;;;;5036676;28;20551;-63
2022/03/28 10:55:16;;;;;;;14.33;13.00;;;55.40;2.00;;;;;;5038046;28;20437;-66
2022/03/28 10:57:46;;;;;;;12.37;11.23;;;55.80;1.80;;;;;;5042271;28;20924;-64
2022/03/28 11:00:16;;;;;;;13.53;12.17;;;56.10;1.90;;;;;;5038702;28;20448;-63
2022/03/28 11:02:43;;;;;;;13.30;12.20;;;56.30;1.60;;;;;;5035946;28;20438;-63
2022/03/28 11:05:14;;;;;;;13.60;12.40;;;56.50;1.40;;;;;;5038975;28;20473;-63
2022/03/28 11:08:04;;;;;;;13.27;12.00;;;56.60;1.10;;;;;;5032615;28;20520;-63
2022/03/28 11:10:33;;;;;;;14.10;12.90;;;56.60;1.20;;;;;;5030282;28;20468;-63
2022/03/28 11:15:59;;;;;;;14.10;12.80;;;56.80;1.00;;;;;;5113174;27;20662;-64
2022/03/28 11:18:29;;;;;;;15.23;13.80;;;56.30;1.00;;;;;;5110398;28;20474;-65
2022/03/28 11:20:56;;;;;;;15.17;13.83;;;55.80;1.20;;;;;;5111621;28;20438;-65
2022/03/28 11:23:24;;;;;;;13.77;12.43;;;55.80;1.00;;;;;;5109771;28;20445;-65
2022/03/28 11:25:52;;;;;;;14.23;13.00;;;55.70;1.00;;;;;;5115257;28;20446;-65
2022/03/28 11:28:24;;;;;;;14.33;13.03;;;55.90;1.00;;;;;;5111248;28;20450;-65
2022/03/28 11:31:05;;;;;;;14.10;12.80;;;56.00;1.00;;;;;;5110480;28;20462;-64
2022/03/28 11:33:38;;;;;;;14.90;13.60;;;56.00;1.00;;;;;;5112307;28;20863;-65
2022/03/28 11:36:07;;;;;;;14.07;12.87;;;56.00;1.00;;;;;;5109622;28;21021;-64
2022/03/28 11:38:38;;;;;;;14.23;13.00;;;56.00;1.00;;;;;;5108589;28;20706;-64
2022/03/28 11:41:07;;;;;;;13.87;12.67;;;56.10;1.00;;;;;;5109645;28;20453;-65
2022/03/28 11:43:36;;;;;;;14.40;13.20;;;56.10;1.00;;;;;;5107962;28;20434;-65
2022/03/28 11:46:12;;;;;;;13.03;11.83;;;56.10;1.00;;;;;;5111752;28;20471;-64
2022/03/28 11:48:51;;;;;;;13.77;12.37;;;56.00;1.00;;;;;;5108711;28;20483;-64
2022/03/28 11:51:19;;;;;;;15.63;14.20;;;56.10;1.00;;;;;;5106527;28;20492;-62
2022/03/28 11:53:46;;;;;;;14.83;13.47;;;56.00;1.00;;;;;;5111268;28;20445;-64
2022/03/28 11:56:24;;;;;;;19.57;14.23;;;55.90;1.00;;;;;;5108237;28;20944;-62
2022/03/28 11:58:51;;;;;;;13.20;12.10;;;55.80;1.00;;;;;;5105975;28;20491;-62
2022/03/28 12:01:20;;;;;;;13.77;12.57;;;55.70;1.00;;;;;;5107575;28;21314;-63
2022/03/28 12:03:52;;;;;;;13.97;12.77;;;55.60;1.10;;;;;;5108373;28;20476;-62
2022/03/28 12:06:30;;;;;;;14.77;13.50;;;55.30;1.00;;;;;;5107185;28;20443;-61
2022/03/28 12:08:57;;;;;;;14.47;12.97;;;55.10;1.00;;;;;;5107796;28;20524;-62
2022/03/28 12:11:26;;;;;;;15.10;13.60;;;55.10;1.00;;;;;;5107790;28;20438;-62
2022/03/28 12:13:54;;;;;;;13.50;12.10;;;55.10;1.60;;;;;;5106236;28;20505;-61
2022/03/28 12:16:23;;;;;;;13.53;11.90;;;54.90;1.40;;;;;;5106553;28;20445;-62
2022/03/28 12:18:53;;;;;;;14.30;12.90;;;54.60;1.00;;;;;;5105647;28;20438;-62
2022/03/28 12:21:21;;;;;;;14.73;13.20;;;54.50;1.00;;;;;;5107468;28;20435;-62
2022/03/28 12:23:48;;;;;;;12.37;11.30;;;54.50;1.00;;;;;;5105364;28;20450;-62
2022/03/28 12:26:16;;;;;;;15.47;14.10;;;54.20;1.00;;;;;;5097565;28;20492;-63
2022/03/28 12:28:45;;;;;;;14.97;13.43;;;53.90;1.00;;;;;;5092532;28;20439;-62
2022/03/28 12:31:13;;;;;;;12.10;10.90;;;53.60;1.10;;;;;;5091837;28;20488;-63
2022/03/28 12:33:43;;;;;;;12.70;11.40;;;53.10;1.00;;;;;;5093534;28;20438;-61
2022/03/28 12:36:13;;;;;;;13.00;11.80;;;52.50;1.00;;;;;;5099675;28;21062;-61
2022/03/28 12:38:41;;;;;;;12.40;11.30;;;52.20;1.00;;;;;;5095390;28;20489;-64
2022/03/28 12:41:11;;;;;;;13.00;11.70;;;51.70;1.00;;;;;;5091353;28;20933;-62
2022/03/28 12:43:40;;;;;;;14.10;12.90;;;51.50;1.00;;;;;;5096076;28;20844;-61
2022/03/28 12:46:10;;;;;;;12.50;11.27;;;51.10;1.00;;;;;;5094692;28;20440;-61
2022/03/28 12:48:39;;;;;;;13.93;12.53;;;51.10;1.00;;;;;;5094833;28;20470;-62
2022/03/28 12:51:09;;;;;;;13.33;12.13;;;50.80;1.00;;;;;;5096417;28;20500;-61